Terminal Aerodrome Forecast
Issued by NWS Mt. Holly, NJ

Home | Current Version | Previous Version | Text Only | Print | Product List | Glossary On
Versions: 1 2 3 4 5 6 7 8 9 10 11 12 13 14 15 16 17 18 19
308
FTUS41 KPHI 290529
TAFRDG
TAF
KRDG 290529Z 2906/3006 31003KT P6SM -SHRA SCT035 BKN060
     FM290700 31005KT 6SM SHRA SCT015 OVC050
      TEMPO 2907/2910 3SM TSRA BKN015CB
     FM291400 28008KT P6SM BKN050
     FM291700 28012G18KT P6SM SCT050 BKN150
     FM292100 32006KT P6SM SCT050 BKN150 PROB30 2921/2923 4SM TSRA
      BKN050CB
     FM300100 01004KT P6SM BKN150
     FM300300 04004KT 5SM BR BKN015=

USA.gov is the U.S. government's official web portal to all federal, state and local government web resources and services.